createdAt,value
2022-08-26T00:00:46.717Z,68.85
2022-08-26T00:01:46.748Z,68.96
2022-08-26T00:02:46.709Z,69.06
2022-08-26T00:03:46.713Z,69.06
2022-08-26T00:04:46.669Z,69.26
2022-08-26T00:05:46.649Z,69.26
2022-08-26T00:06:46.639Z,69.35
2022-08-26T00:07:46.628Z,69.35
2022-08-26T00:08:46.770Z,69.46
2022-08-26T00:09:47.034Z,69.46
2022-08-26T00:10:46.598Z,69.46
2022-08-26T00:11:46.598Z,69.46
2022-08-26T00:12:46.579Z,69.46
2022-08-26T00:13:48.015Z,69.46
2022-08-26T00:14:46.551Z,69.56
2022-08-26T00:15:46.590Z,69.66
2022-08-26T00:16:47.826Z,69.79
2022-08-26T00:17:46.510Z,69.89
2022-08-26T00:18:46.504Z,70.09
2022-08-26T00:19:46.491Z,70.29
2022-08-26T00:20:46.482Z,70.39
2022-08-26T00:21:46.480Z,70.50
2022-08-26T00:22:46.451Z,70.63
2022-08-26T00:23:46.441Z,70.73
2022-08-26T00:24:48.022Z,70.93
2022-08-26T00:25:46.427Z,71.03
2022-08-26T00:26:46.438Z,71.13
2022-08-26T00:27:46.483Z,71.23
2022-08-26T00:28:46.401Z,71.33
2022-08-26T00:29:46.372Z,71.43
2022-08-26T00:30:46.372Z,71.66
2022-08-26T00:31:46.376Z,71.86
2022-08-26T00:32:46.451Z,71.97
2022-08-26T00:33:46.332Z,72.06
2022-08-26T00:34:46.325Z,72.27
2022-08-26T00:35:46.311Z,72.27
2022-08-26T00:36:46.301Z,72.27
2022-08-26T00:37:46.283Z,72.17
2022-08-26T00:38:46.292Z,71.97
2022-08-26T00:39:46.387Z,71.86
2022-08-26T00:40:46.253Z,71.86
2022-08-26T00:41:46.243Z,71.86
2022-08-26T00:42:46.273Z,71.63
2022-08-26T00:43:47.446Z,71.43
2022-08-26T00:44:46.204Z,71.43
2022-08-26T00:45:46.247Z,71.23
2022-08-26T00:46:46.849Z,71.23
2022-08-26T00:47:46.173Z,71.23
2022-08-26T00:48:46.164Z,71.03
2022-08-26T00:49:46.586Z,71.03
2022-08-26T00:50:46.144Z,71.03
2022-08-26T00:51:46.134Z,71.03
2022-08-26T00:52:46.126Z,71.03
2022-08-26T00:53:46.106Z,70.93
2022-08-26T00:54:46.095Z,70.93
2022-08-26T00:55:46.095Z,70.93
2022-08-26T00:56:47.015Z,70.93
2022-08-26T00:57:46.056Z,70.93
2022-08-26T00:58:46.046Z,71.03
2022-08-26T00:59:46.035Z,71.33
2022-08-26T01:00:46.092Z,71.56
2022-08-26T01:01:47.492Z,71.77
2022-08-26T01:02:46.910Z,72.06
2022-08-26T01:03:45.988Z,72.37
2022-08-26T01:04:45.978Z,72.60
2022-08-26T01:05:45.968Z,72.80
2022-08-26T01:06:45.967Z,73.10
2022-08-26T01:07:45.946Z,73.34
2022-08-26T01:08:45.927Z,73.54
2022-08-26T01:09:45.918Z,73.64
2022-08-26T01:10:45.908Z,73.94
2022-08-26T01:11:45.937Z,74.15
2022-08-26T01:12:45.880Z,74.38
2022-08-26T01:13:45.878Z,74.58
2022-08-26T01:14:46.523Z,74.58
2022-08-26T01:15:45.856Z,74.58
2022-08-26T01:16:45.861Z,74.48
2022-08-26T01:17:45.849Z,74.38
2022-08-26T01:18:45.808Z,74.38
2022-08-26T01:19:45.810Z,74.48
2022-08-26T01:20:45.788Z,74.48
2022-08-26T01:21:45.779Z,74.58
2022-08-26T01:22:45.769Z,74.68
2022-08-26T01:23:45.769Z,74.68
2022-08-26T01:24:45.739Z,74.78
2022-08-26T01:25:45.738Z,74.78
2022-08-26T01:26:45.724Z,74.78
2022-08-26T01:27:45.710Z,74.88
2022-08-26T01:28:45.720Z,74.88
2022-08-26T01:29:45.698Z,74.88
2022-08-26T01:30:45.681Z,74.98
2022-08-26T01:31:45.701Z,74.98
2022-08-26T01:32:45.651Z,75.09
2022-08-26T01:33:45.650Z,75.18
2022-08-26T01:34:45.651Z,75.18
2022-08-26T01:35:45.623Z,75.29
2022-08-26T01:36:50.598Z,75.29
2022-08-26T01:37:46.601Z,75.42
2022-08-26T01:38:45.590Z,75.52
2022-08-26T01:39:45.610Z,75.52
2022-08-26T01:40:45.580Z,75.52
2022-08-26T01:41:45.561Z,75.42
2022-08-26T01:42:45.559Z,75.42
2022-08-26T01:43:45.542Z,75.42
2022-08-26T01:44:45.531Z,75.42
2022-08-26T01:45:45.571Z,75.42
2022-08-26T01:46:45.502Z,75.52
2022-08-26T01:47:45.493Z,75.52
2022-08-26T01:48:45.491Z,75.52
2022-08-26T01:49:45.473Z,75.62
2022-08-26T01:50:45.475Z,75.72
2022-08-26T01:51:45.482Z,75.72
2022-08-26T01:52:45.442Z,75.72
2022-08-26T01:53:46.090Z,75.62
2022-08-26T01:54:46.273Z,75.38
2022-08-26T01:55:45.412Z,75.18
2022-08-26T01:56:45.407Z,74.98
2022-08-26T01:57:45.404Z,74.78
2022-08-26T01:58:45.385Z,74.68
2022-08-26T01:59:45.373Z,74.58
2022-08-26T02:00:45.378Z,74.65
2022-08-26T02:01:45.353Z,74.68
2022-08-26T02:02:45.354Z,74.65
2022-08-26T02:03:45.327Z,74.65
2022-08-26T02:04:45.347Z,74.65
2022-08-26T02:05:45.304Z,74.68
2022-08-26T02:06:45.294Z,74.78
2022-08-26T02:07:45.284Z,74.88
2022-08-26T02:08:45.296Z,74.98
2022-08-26T02:09:45.264Z,75.29
2022-08-26T02:10:45.252Z,75.38
2022-08-26T02:11:45.248Z,75.62
2022-08-26T02:12:45.226Z,75.72
2022-08-26T02:13:45.218Z,75.72
2022-08-26T02:14:45.226Z,75.82
2022-08-26T02:15:45.195Z,75.92
2022-08-26T02:16:45.234Z,76.03
2022-08-26T02:17:45.183Z,76.23
2022-08-26T02:18:45.163Z,76.32
2022-08-26T02:19:45.175Z,76.43
2022-08-26T02:20:45.145Z,76.56
2022-08-26T02:21:45.136Z,76.56
2022-08-26T02:22:45.341Z,76.67
2022-08-26T02:23:45.525Z,76.76
2022-08-26T02:24:45.116Z,76.97
2022-08-26T02:25:45.096Z,77.07
2022-08-26T02:26:45.079Z,77.07
2022-08-26T02:27:45.066Z,77.17
2022-08-26T02:28:45.055Z,77.27
2022-08-26T02:29:45.060Z,77.37
2022-08-26T02:30:45.062Z,77.47
2022-08-26T02:31:45.077Z,77.57
2022-08-26T02:32:45.007Z,77.57
2022-08-26T02:33:45.009Z,77.57
2022-08-26T02:34:45.005Z,77.57
2022-08-26T02:35:45.007Z,77.57
2022-08-26T02:36:44.968Z,77.67
2022-08-26T02:37:44.966Z,77.67
2022-08-26T02:38:44.950Z,77.77
2022-08-26T02:39:44.951Z,77.77
2022-08-26T02:40:44.927Z,77.87
2022-08-26T02:41:45.431Z,77.97
2022-08-26T02:42:44.909Z,78.07
2022-08-26T02:43:44.897Z,78.21
2022-08-26T02:44:44.884Z,78.31
2022-08-26T02:45:44.881Z,78.41
2022-08-26T02:46:46.800Z,78.41
2022-08-26T02:47:44.869Z,78.41
2022-08-26T02:48:44.839Z,78.51
2022-08-26T02:49:44.829Z,78.51
2022-08-26T02:50:44.819Z,78.71
2022-08-26T02:51:44.818Z,78.71
2022-08-26T02:52:44.820Z,78.71
2022-08-26T02:53:44.788Z,78.58
2022-08-26T02:54:44.788Z,78.47
2022-08-26T02:55:44.791Z,78.38
2022-08-26T02:56:44.750Z,78.27
2022-08-26T02:57:44.750Z,78.07
2022-08-26T02:58:44.741Z,78.03
2022-08-26T02:59:44.729Z,77.94
2022-08-26T03:00:52.531Z,77.94
2022-08-26T03:01:45.751Z,78.03
2022-08-26T03:02:44.690Z,78.03
2022-08-26T03:03:44.700Z,78.03
2022-08-26T03:04:57.733Z,78.14
2022-08-26T03:05:45.661Z,78.03
2022-08-26T03:06:47.102Z,77.94
2022-08-26T03:07:45.640Z,77.87
2022-08-26T03:08:44.622Z,77.87
2022-08-26T03:09:44.632Z,77.87
2022-08-26T03:10:44.602Z,77.97
2022-08-26T03:11:44.592Z,77.97
2022-08-26T03:12:44.592Z,78.17
2022-08-26T03:13:44.574Z,78.41
2022-08-26T03:14:44.581Z,78.61
2022-08-26T03:15:44.659Z,78.61
2022-08-26T03:16:44.552Z,78.81
2022-08-26T03:17:44.535Z,78.91
2022-08-26T03:18:44.513Z,78.91
2022-08-26T03:19:45.552Z,79.11
2022-08-26T03:20:44.534Z,79.11
2022-08-26T03:21:44.492Z,79.08
2022-08-26T03:22:44.473Z,78.98
2022-08-26T03:23:44.464Z,79.08
2022-08-26T03:24:46.171Z,79.08
2022-08-26T03:25:44.473Z,79.08
2022-08-26T03:26:52.657Z,78.98
2022-08-26T03:27:45.424Z,79.08
2022-08-26T03:28:44.404Z,79.18
2022-08-26T03:29:44.402Z,79.18
2022-08-26T03:30:45.780Z,79.28
2022-08-26T03:31:44.442Z,79.08
2022-08-26T03:32:44.364Z,78.98
2022-08-26T03:33:44.363Z,78.88
2022-08-26T03:34:44.345Z,78.67
2022-08-26T03:35:44.344Z,78.54
2022-08-26T03:36:44.343Z,78.34
2022-08-26T03:37:44.323Z,78.14
2022-08-26T03:38:44.304Z,78.27
2022-08-26T03:39:44.294Z,78.38
2022-08-26T03:40:44.283Z,78.67
2022-08-26T03:41:44.266Z,78.78
2022-08-26T03:42:45.284Z,78.67
2022-08-26T03:43:44.255Z,78.88
2022-08-26T03:44:44.236Z,78.88
2022-08-26T03:45:44.235Z,78.88
2022-08-26T03:46:44.283Z,78.88
2022-08-26T03:47:44.234Z,78.88
2022-08-26T03:48:44.196Z,78.78
2022-08-26T03:49:44.186Z,78.67
2022-08-26T03:50:44.177Z,78.58
2022-08-26T03:51:44.166Z,78.47
2022-08-26T03:52:44.270Z,78.51
2022-08-26T03:53:44.165Z,78.81
2022-08-26T03:54:44.131Z,79.05
2022-08-26T03:55:44.127Z,79.46
2022-08-26T03:56:44.106Z,79.66
2022-08-26T03:57:44.113Z,80.00
2022-08-26T03:58:44.106Z,80.20
2022-08-26T03:59:44.076Z,80.40
2022-08-26T04:00:44.065Z,80.50
2022-08-26T04:01:44.116Z,80.70
2022-08-26T04:02:44.094Z,80.84
2022-08-26T04:03:44.027Z,80.94
2022-08-26T04:04:44.045Z,81.04
2022-08-26T04:05:44.016Z,81.24
2022-08-26T04:06:44.581Z,81.35
2022-08-26T04:07:43.988Z,81.24
2022-08-26T04:08:43.976Z,81.35
2022-08-26T04:09:43.968Z,81.15
2022-08-26T04:10:43.967Z,81.21
2022-08-26T04:11:43.939Z,81.10
2022-08-26T04:12:43.929Z,81.10
2022-08-26T04:13:43.919Z,81.21
2022-08-26T04:14:43.908Z,81.30
2022-08-26T04:15:43.984Z,81.21
2022-08-26T04:16:43.890Z,81.21
2022-08-26T04:17:43.879Z,81.21
2022-08-26T04:18:46.707Z,81.21
2022-08-26T04:19:43.851Z,81.21
2022-08-26T04:20:43.840Z,81.10
2022-08-26T04:21:43.850Z,81.01
2022-08-26T04:22:43.820Z,80.80
2022-08-26T04:23:47.185Z,80.66
2022-08-26T04:24:43.790Z,80.46
2022-08-26T04:25:43.830Z,80.36
2022-08-26T04:26:43.975Z,80.16
2022-08-26T04:27:43.768Z,80.16
2022-08-26T04:28:43.750Z,80.16
2022-08-26T04:29:43.741Z,80.06
2022-08-26T04:30:43.730Z,80.26
2022-08-26T04:31:43.776Z,80.36
2022-08-26T04:32:43.722Z,80.26
2022-08-26T04:33:43.710Z,80.16
2022-08-26T04:34:43.687Z,80.06
2022-08-26T04:35:43.689Z,80.06
2022-08-26T04:36:43.661Z,80.16
2022-08-26T04:37:43.684Z,80.16
2022-08-26T04:38:43.642Z,80.16
2022-08-26T04:39:43.641Z,80.16
2022-08-26T04:40:43.621Z,80.36
2022-08-26T04:41:43.612Z,80.46
2022-08-26T04:42:43.601Z,80.57
2022-08-26T04:43:43.612Z,80.52
2022-08-26T04:44:43.572Z,80.32
2022-08-26T04:45:43.592Z,80.12
2022-08-26T04:46:43.714Z,80.02
2022-08-26T04:47:43.543Z,79.82
2022-08-26T04:48:43.531Z,79.82
2022-08-26T04:49:43.543Z,79.72
2022-08-26T04:50:43.516Z,79.72
2022-08-26T04:51:43.939Z,79.62
2022-08-26T04:52:43.483Z,79.52
2022-08-26T04:53:43.483Z,79.62
2022-08-26T04:54:43.463Z,79.62
2022-08-26T04:55:45.100Z,79.62
2022-08-26T04:56:43.442Z,79.52
2022-08-26T04:57:43.433Z,79.52
2022-08-26T04:58:43.423Z,79.42
2022-08-26T04:59:43.413Z,79.52
2022-08-26T05:00:43.406Z,79.42
2022-08-26T05:01:43.510Z,79.42
2022-08-26T05:02:43.383Z,79.22
2022-08-26T05:03:43.407Z,79.11
2022-08-26T05:04:43.354Z,78.91
2022-08-26T05:05:43.354Z,79.02
2022-08-26T05:06:43.335Z,79.02
2022-08-26T05:07:43.353Z,79.02
2022-08-26T05:08:43.314Z,79.11
2022-08-26T05:09:43.305Z,79.22
2022-08-26T05:10:43.580Z,79.22
2022-08-26T05:11:43.285Z,79.32
2022-08-26T05:12:43.266Z,79.22
2022-08-26T05:13:43.297Z,79.42
2022-08-26T05:14:43.251Z,79.42
2022-08-26T05:15:43.261Z,79.52
2022-08-26T05:16:43.226Z,79.52
2022-08-26T05:17:43.219Z,79.62
2022-08-26T05:18:43.226Z,79.72
2022-08-26T05:19:43.201Z,79.62
2022-08-26T05:20:43.186Z,79.62
2022-08-26T05:21:43.176Z,79.62
2022-08-26T05:22:43.166Z,79.62
2022-08-26T05:23:43.155Z,79.62
2022-08-26T05:24:43.171Z,79.52
2022-08-26T05:25:43.149Z,79.42
2022-08-26T05:26:44.543Z,79.42
2022-08-26T05:27:43.107Z,79.42
2022-08-26T05:28:43.098Z,79.42
2022-08-26T05:29:43.113Z,79.28
2022-08-26T05:30:43.107Z,79.18
2022-08-26T05:31:43.067Z,79.08
2022-08-26T05:32:43.057Z,79.08
2022-08-26T05:33:43.049Z,78.88
2022-08-26T05:34:43.147Z,78.98
2022-08-26T05:35:43.050Z,78.88
2022-08-26T05:36:43.019Z,78.88
2022-08-26T05:37:42.998Z,78.64
2022-08-26T05:38:43.000Z,78.64
2022-08-26T05:39:43.566Z,78.44
2022-08-26T05:40:43.989Z,78.44
2022-08-26T05:41:42.969Z,78.34
2022-08-26T05:42:42.959Z,78.14
2022-08-26T05:43:42.941Z,77.90
2022-08-26T05:44:55.426Z,77.80
2022-08-26T05:45:45.948Z,77.59
2022-08-26T05:46:44.030Z,77.26
2022-08-26T05:47:42.890Z,77.06
2022-08-26T05:48:44.345Z,76.65
2022-08-26T05:49:45.153Z,76.42
2022-08-26T05:50:43.860Z,76.21
2022-08-26T05:51:42.870Z,76.12
2022-08-26T05:52:42.841Z,75.82
2022-08-26T05:53:43.765Z,75.71
2022-08-26T05:54:43.811Z,75.38
2022-08-26T05:55:42.801Z,74.98
2022-08-26T05:56:43.094Z,74.77
2022-08-26T05:57:43.086Z,74.54
2022-08-26T05:58:42.769Z,74.44
2022-08-26T05:59:42.755Z,74.14
2022-08-26T06:00:42.741Z,74.04
2022-08-26T06:01:42.814Z,73.84
2022-08-26T06:02:42.776Z,73.84
2022-08-26T06:03:42.722Z,73.70
2022-08-26T06:04:42.693Z,73.70
2022-08-26T06:05:42.682Z,73.60
2022-08-26T06:06:43.597Z,73.50
2022-08-26T06:07:42.666Z,73.20
2022-08-26T06:08:42.652Z,72.97
2022-08-26T06:09:42.665Z,72.86
2022-08-26T06:10:42.633Z,72.90
2022-08-26T06:11:42.613Z,72.86
2022-08-26T06:12:42.604Z,72.86
2022-08-26T06:13:42.593Z,72.77
2022-08-26T06:14:42.587Z,72.36
2022-08-26T06:15:42.678Z,72.03
2022-08-26T06:16:42.566Z,71.83
2022-08-26T06:17:42.552Z,71.73
2022-08-26T06:18:42.542Z,71.73
2022-08-26T06:19:42.533Z,71.83
2022-08-26T06:20:42.515Z,71.83
2022-08-26T06:21:42.544Z,71.69
2022-08-26T06:22:42.494Z,71.50
2022-08-26T06:23:42.494Z,71.26
2022-08-26T06:24:42.508Z,71.16
2022-08-26T06:25:42.473Z,71.16
2022-08-26T06:26:42.809Z,70.83
2022-08-26T06:27:42.465Z,70.62
2022-08-26T06:28:43.553Z,70.32
2022-08-26T06:29:42.416Z,69.59
2022-08-26T06:30:42.479Z,69.39
2022-08-26T06:31:42.394Z,69.19
2022-08-26T06:32:42.406Z,69.16
2022-08-26T06:33:42.369Z,68.52
2022-08-26T06:34:42.357Z,67.93
2022-08-26T06:35:42.357Z,67.80
2022-08-26T06:36:42.346Z,67.30
2022-08-26T06:37:42.329Z,67.53
2022-08-26T06:38:42.337Z,67.72
2022-08-26T06:39:42.299Z,67.72
2022-08-26T06:40:42.298Z,67.93
2022-08-26T06:41:43.458Z,68.13
2022-08-26T06:42:42.268Z,68.33
2022-08-26T06:43:42.259Z,68.66
2022-08-26T06:44:44.715Z,68.76
2022-08-26T06:45:42.240Z,69.26
2022-08-26T06:46:42.271Z,69.49
2022-08-26T06:47:42.209Z,69.49
2022-08-26T06:48:42.207Z,69.99
2022-08-26T06:49:42.190Z,70.29
2022-08-26T06:50:42.211Z,70.49
2022-08-26T06:51:42.171Z,70.62
2022-08-26T06:52:42.159Z,70.92
2022-08-26T06:53:42.142Z,70.83
2022-08-26T06:54:42.141Z,70.92
2022-08-26T06:55:42.192Z,71.03
2022-08-26T06:56:42.111Z,71.23
2022-08-26T06:57:42.103Z,71.23
2022-08-26T06:58:42.091Z,71.33
2022-08-26T06:59:42.089Z,71.33
2022-08-26T07:00:42.072Z,71.09
2022-08-26T07:01:43.758Z,70.89
2022-08-26T07:02:46.905Z,70.89
2022-08-26T07:03:43.574Z,70.69
2022-08-26T07:04:42.022Z,70.66
2022-08-26T07:05:42.013Z,70.36
2022-08-26T07:06:42.002Z,70.06
2022-08-26T07:07:42.003Z,69.82
2022-08-26T07:08:41.981Z,69.62
2022-08-26T07:09:41.963Z,69.73
2022-08-26T07:10:41.957Z,69.82
2022-08-26T07:11:41.952Z,69.82
2022-08-26T07:12:41.954Z,69.82
2022-08-26T07:13:42.922Z,70.03
2022-08-26T07:14:43.803Z,69.93
2022-08-26T07:15:42.945Z,70.03
2022-08-26T07:16:41.893Z,70.12
2022-08-26T07:17:41.875Z,70.12
2022-08-26T07:18:41.884Z,70.12
2022-08-26T07:19:41.855Z,70.09
2022-08-26T07:20:42.985Z,69.99
2022-08-26T07:21:41.845Z,69.99
2022-08-26T07:22:41.826Z,69.46
2022-08-26T07:23:41.805Z,69.06
2022-08-26T07:24:42.416Z,68.96
2022-08-26T07:25:41.798Z,68.76
2022-08-26T07:26:43.016Z,68.53
2022-08-26T07:27:41.766Z,68.43
2022-08-26T07:28:41.756Z,68.33
2022-08-26T07:29:41.749Z,68.13
2022-08-26T07:30:41.849Z,67.83
2022-08-26T07:31:42.717Z,67.60
2022-08-26T07:32:41.727Z,67.50
2022-08-26T07:33:41.727Z,67.50
2022-08-26T07:34:41.898Z,67.80
2022-08-26T07:35:41.679Z,67.90
2022-08-26T07:36:41.686Z,68.30
2022-08-26T07:37:41.649Z,68.40
2022-08-26T07:38:41.652Z,68.43
2022-08-26T07:39:41.631Z,68.10
2022-08-26T07:40:41.619Z,68.00
2022-08-26T07:41:41.630Z,67.47
2022-08-26T07:42:41.599Z,67.57
2022-08-26T07:43:41.584Z,67.24
2022-08-26T07:44:41.581Z,66.53
2022-08-26T07:45:41.570Z,66.31
2022-08-26T07:46:41.561Z,65.68
2022-08-26T07:47:41.569Z,64.95
2022-08-26T07:48:41.548Z,64.22
2022-08-26T07:49:41.591Z,63.92
2022-08-26T07:50:49.347Z,63.49
2022-08-26T07:51:42.504Z,63.40
2022-08-26T07:52:41.491Z,63.10
2022-08-26T07:53:41.501Z,63.20
2022-08-26T07:54:41.471Z,63.00
2022-08-26T07:55:41.462Z,62.90
2022-08-26T07:56:41.446Z,63.43
2022-08-26T07:57:41.432Z,63.30
2022-08-26T07:58:41.423Z,62.90
2022-08-26T07:59:41.432Z,63.53
2022-08-26T08:00:41.404Z,63.82
2022-08-26T08:01:41.474Z,63.73
2022-08-26T08:02:41.381Z,64.15
2022-08-26T08:03:41.373Z,64.25
2022-08-26T08:04:41.395Z,64.65
2022-08-26T08:05:41.495Z,64.75
2022-08-26T08:06:41.333Z,64.32
2022-08-26T08:07:45.019Z,63.92
2022-08-26T08:08:41.318Z,64.09
2022-08-26T08:09:41.295Z,63.60
2022-08-26T08:10:41.294Z,63.20
2022-08-26T08:11:41.296Z,63.07
2022-08-26T08:12:41.266Z,62.94
2022-08-26T08:13:41.279Z,62.45
2022-08-26T08:14:41.247Z,62.37
2022-08-26T08:15:41.236Z,62.87
2022-08-26T08:16:45.823Z,63.40
2022-08-26T08:17:42.217Z,63.60
2022-08-26T08:18:41.197Z,64.03
2022-08-26T08:19:41.185Z,64.12
2022-08-26T08:20:44.736Z,64.29
2022-08-26T08:21:42.167Z,64.09
2022-08-26T08:22:41.168Z,63.79
2022-08-26T08:23:41.138Z,63.57
2022-08-26T08:24:41.128Z,63.34
2022-08-26T08:25:41.119Z,62.94
2022-08-26T08:26:41.109Z,62.41
2022-08-26T08:27:41.118Z,62.41
2022-08-26T08:28:41.079Z,62.51
2022-08-26T08:29:41.091Z,62.21
2022-08-26T08:30:41.103Z,62.08
2022-08-26T08:31:56.454Z,61.46
2022-08-26T08:32:42.091Z,60.86
2022-08-26T08:33:41.061Z,60.74
2022-08-26T08:35:41.012Z,59.69
2022-08-26T08:36:40.999Z,58.37
2022-08-26T08:37:40.984Z,57.20
2022-08-26T08:38:41.002Z,55.87
2022-08-26T08:39:40.961Z,55.66
2022-08-26T08:40:40.953Z,54.95
2022-08-26T08:41:40.932Z,54.75
2022-08-26T08:42:41.034Z,54.72
2022-08-26T08:43:40.942Z,53.69
2022-08-26T08:44:40.928Z,52.65
2022-08-26T08:45:40.958Z,51.54
2022-08-26T08:46:40.893Z,50.54
2022-08-26T08:47:40.876Z,50.76
2022-08-26T08:48:40.865Z,50.73
2022-08-26T08:49:40.885Z,50.51
2022-08-26T08:50:40.844Z,49.99
2022-08-26T08:51:40.838Z,49.08
2022-08-26T08:52:40.825Z,49.31
2022-08-26T08:53:40.805Z,50.46
2022-08-26T08:54:40.805Z,51.57
2022-08-26T08:55:40.808Z,52.50
2022-08-26T08:56:40.795Z,53.32
2022-08-26T08:57:40.768Z,54.03
2022-08-26T08:58:40.757Z,54.13
2022-08-26T08:59:40.740Z,54.23
2022-08-26T09:00:40.757Z,54.26
2022-08-26T09:01:40.752Z,54.97
2022-08-26T09:02:40.746Z,55.27
2022-08-26T09:03:40.708Z,55.05
2022-08-26T09:04:40.688Z,54.85
2022-08-26T09:05:41.910Z,54.13
2022-08-26T09:06:41.054Z,54.03
2022-08-26T09:07:40.658Z,53.84
2022-08-26T09:08:40.651Z,53.42
2022-08-26T09:09:40.640Z,53.54
2022-08-26T09:10:40.649Z,53.22
2022-08-26T09:11:40.641Z,52.90
2022-08-26T09:12:40.622Z,52.63
2022-08-26T09:13:40.601Z,52.80
2022-08-26T09:14:40.602Z,51.76
2022-08-26T09:15:40.583Z,51.76
2022-08-26T09:16:40.645Z,51.76
2022-08-26T09:17:40.657Z,51.47
2022-08-26T09:18:40.552Z,52.06
2022-08-26T09:19:40.533Z,51.25
2022-08-26T09:20:40.524Z,50.95
2022-08-26T09:21:40.514Z,51.18
2022-08-26T09:22:40.505Z,51.79
2022-08-26T09:23:42.776Z,52.40
2022-08-26T09:24:41.786Z,52.83
2022-08-26T09:25:41.557Z,53.74
2022-08-26T09:26:40.458Z,54.19
2022-08-26T09:27:40.448Z,54.80
2022-08-26T09:28:40.436Z,55.00
2022-08-26T09:29:40.446Z,54.88
2022-08-26T09:30:40.461Z,53.84
2022-08-26T09:31:40.399Z,53.54
2022-08-26T09:32:40.410Z,53.02
2022-08-26T09:33:40.394Z,52.31
2022-08-26T09:34:40.403Z,52.28
2022-08-26T09:35:40.477Z,51.67
2022-08-26T09:36:41.104Z,51.03
2022-08-26T09:37:40.369Z,50.44
2022-08-26T09:38:40.328Z,49.73
2022-08-26T09:39:40.319Z,49.11
2022-08-26T09:40:40.308Z,49.29
2022-08-26T09:41:40.329Z,49.01
2022-08-26T09:42:40.287Z,49.11
2022-08-26T09:43:40.279Z,48.50
2022-08-26T09:44:40.260Z,48.40
2022-08-26T09:45:40.305Z,48.50
2022-08-26T09:47:40.555Z,47.30
2022-08-26T09:48:40.577Z,47.59
2022-08-26T09:49:40.211Z,47.71
2022-08-26T09:50:40.199Z,48.72
2022-08-26T09:51:40.192Z,48.23
2022-08-26T09:52:40.655Z,48.52
2022-08-26T09:53:40.183Z,48.21
2022-08-26T09:54:40.163Z,47.49
2022-08-26T09:55:40.153Z,47.30
2022-08-26T09:56:40.144Z,47.22
2022-08-26T09:57:40.134Z,48.23
2022-08-26T09:58:40.137Z,47.93
2022-08-26T09:59:40.105Z,48.03
2022-08-26T10:00:40.105Z,47.52
2022-08-26T10:01:40.171Z,46.88
2022-08-26T10:02:40.075Z,46.17
2022-08-26T10:03:40.065Z,46.88
2022-08-26T10:04:40.120Z,47.27
2022-08-26T10:05:40.048Z,46.61
2022-08-26T10:06:40.036Z,47.10
2022-08-26T10:07:40.027Z,47.00
2022-08-26T10:08:40.015Z,46.91
2022-08-26T10:09:40.029Z,46.81
2022-08-26T10:10:39.998Z,46.61
2022-08-26T10:11:39.987Z,47.15
2022-08-26T10:12:39.977Z,47.54
2022-08-26T10:13:39.968Z,47.52
2022-08-26T10:14:39.952Z,47.22
2022-08-26T10:15:39.969Z,47.54
2022-08-26T10:16:39.997Z,48.35
2022-08-26T10:17:39.921Z,48.86
2022-08-26T10:18:39.919Z,49.77
2022-08-26T10:19:55.567Z,49.75
2022-08-26T10:20:40.920Z,48.96
2022-08-26T10:21:39.880Z,49.04
2022-08-26T10:22:39.870Z,48.15
2022-08-26T10:24:39.850Z,48.37
2022-08-26T10:25:39.850Z,48.77
2022-08-26T10:26:39.851Z,49.28
2022-08-26T10:27:40.480Z,49.06
2022-08-26T10:28:40.804Z,47.98
2022-08-26T10:29:39.801Z,48.57
2022-08-26T10:30:39.798Z,49.18
2022-08-26T10:31:40.618Z,49.28
2022-08-26T10:32:41.371Z,49.68
2022-08-26T10:33:39.753Z,49.16
2022-08-26T10:34:39.754Z,49.16
2022-08-26T10:35:39.734Z,48.35
2022-08-26T10:36:58.643Z,48.77
2022-08-26T10:37:40.755Z,49.18
2022-08-26T10:38:39.695Z,49.48
2022-08-26T10:39:39.687Z,49.16
2022-08-26T10:41:31.348Z,48.77
2022-08-26T10:42:31.338Z,49.04
2022-08-26T10:43:31.348Z,48.74
2022-08-26T10:44:31.318Z,48.47
2022-08-26T10:45:31.365Z,49.16
2022-08-26T10:46:31.298Z,49.06
2022-08-26T10:47:31.364Z,48.57
2022-08-26T10:48:35.460Z,48.35
2022-08-26T10:49:31.279Z,48.23
2022-08-26T10:50:31.250Z,47.42
2022-08-26T10:51:31.239Z,47.30
2022-08-26T10:52:31.230Z,47.10
2022-08-26T10:53:32.734Z,47.39
2022-08-26T10:54:31.232Z,47.44
2022-08-26T10:55:31.193Z,47.93
2022-08-26T10:56:31.181Z,47.93
2022-08-26T10:57:31.173Z,48.25
2022-08-26T10:58:31.171Z,47.86
2022-08-26T10:59:31.152Z,47.76
2022-08-26T11:00:31.422Z,47.74
2022-08-26T11:01:31.178Z,47.54
2022-08-26T11:02:31.128Z,47.44
2022-08-26T11:03:31.115Z,48.23
2022-08-26T11:04:31.125Z,47.81
2022-08-26T11:05:31.087Z,46.73
2022-08-26T11:06:31.094Z,46.93
2022-08-26T11:07:31.690Z,46.51
2022-08-26T11:08:31.085Z,46.51
2022-08-26T11:09:31.045Z,45.51
2022-08-26T11:10:31.055Z,44.65
2022-08-26T11:11:31.064Z,45.75
2022-08-26T11:12:31.016Z,45.95
2022-08-26T11:13:30.998Z,46.14
2022-08-26T11:14:40.598Z,45.24
2022-08-26T11:15:31.977Z,44.55
2022-08-26T11:16:31.014Z,44.35
2022-08-26T11:17:30.987Z,43.86
2022-08-26T11:18:30.977Z,43.57
2022-08-26T11:19:50.558Z,44.45
2022-08-26T11:20:31.928Z,44.16
2022-08-26T11:21:30.917Z,42.58
2022-08-26T11:22:30.900Z,43.86
2022-08-26T11:23:30.909Z,43.86
2022-08-26T11:24:30.881Z,43.47
2022-08-26T11:25:31.163Z,43.27
2022-08-26T11:26:43.218Z,43.65
2022-08-26T11:27:31.855Z,43.35
2022-08-26T11:28:30.870Z,43.27
2022-08-26T11:29:30.831Z,42.79
2022-08-26T11:30:30.820Z,43.08
2022-08-26T11:31:31.754Z,43.37
2022-08-26T11:32:30.800Z,42.00
2022-08-26T11:33:30.783Z,42.79
2022-08-26T11:34:30.792Z,43.08
2022-08-26T11:35:30.765Z,42.76
2022-08-26T11:36:30.762Z,42.96
2022-08-26T11:37:30.831Z,42.18
2022-08-26T11:38:30.759Z,42.05
2022-08-26T11:39:30.745Z,42.35
2022-08-26T11:40:30.800Z,43.02
2022-08-26T11:41:30.705Z,42.31
2022-08-26T11:42:30.694Z,42.09
2022-08-26T11:43:30.676Z,41.99
2022-08-26T11:44:30.674Z,42.29
2022-08-26T11:45:30.745Z,41.50
2022-08-26T11:46:30.669Z,41.80
2022-08-26T11:47:30.638Z,41.82
2022-08-26T11:48:30.633Z,41.72
2022-08-26T11:49:30.616Z,42.33
2022-08-26T11:50:30.606Z,42.43
2022-08-26T11:51:30.625Z,42.65
2022-08-26T11:52:30.600Z,42.55
2022-08-26T11:53:30.578Z,42.66
2022-08-26T11:54:35.190Z,42.57
2022-08-26T11:55:31.557Z,42.74
2022-08-26T11:56:31.797Z,42.35
2022-08-26T11:57:30.538Z,42.13
2022-08-26T11:58:30.529Z,42.13
2022-08-26T11:59:30.538Z,41.92
2022-08-26T12:00:33.487Z,41.50
2022-08-26T12:01:31.282Z,41.19
2022-08-26T12:02:30.499Z,41.07
2022-08-26T12:03:30.546Z,40.27
2022-08-26T12:04:30.529Z,40.25
2022-08-26T12:05:31.214Z,39.36
2022-08-26T12:06:30.442Z,39.06
2022-08-26T12:07:30.475Z,39.06
2022-08-26T12:08:30.422Z,39.37
2022-08-26T12:09:30.414Z,39.37
2022-08-26T12:10:30.403Z,39.18
2022-08-26T12:11:30.402Z,39.59
2022-08-26T12:12:34.540Z,39.57
2022-08-26T12:13:30.404Z,39.26
2022-08-26T12:14:30.363Z,39.16
2022-08-26T12:15:30.353Z,38.28
2022-08-26T12:16:30.408Z,38.38
2022-08-26T12:17:30.332Z,38.69
2022-08-26T12:18:30.323Z,39.37
2022-08-26T12:19:32.627Z,38.77
2022-08-26T12:20:30.308Z,38.35
2022-08-26T12:21:31.515Z,38.45
2022-08-26T12:22:30.277Z,38.35
2022-08-26T12:23:30.266Z,38.06
2022-08-26T12:24:30.279Z,38.35
2022-08-26T12:25:35.904Z,37.96
2022-08-26T12:26:31.226Z,37.09
2022-08-26T12:27:30.227Z,37.75
2022-08-26T12:28:30.216Z,37.17
2022-08-26T12:29:30.207Z,37.17
2022-08-26T12:30:30.231Z,37.37
2022-08-26T12:31:30.194Z,36.58
2022-08-26T12:32:30.168Z,36.99
2022-08-26T12:33:30.156Z,37.40
2022-08-26T12:34:30.148Z,37.91
2022-08-26T12:35:30.128Z,38.32
2022-08-26T12:36:30.139Z,38.42
2022-08-26T12:37:30.119Z,38.81
2022-08-26T12:38:30.110Z,38.90
2022-08-26T12:39:30.092Z,39.20
2022-08-26T12:40:30.191Z,39.00
2022-08-26T12:41:30.090Z,39.69
2022-08-26T12:42:30.061Z,39.59
2022-08-26T12:43:30.051Z,39.59
2022-08-26T12:44:30.054Z,39.61
2022-08-26T12:45:30.051Z,39.29
2022-08-26T12:46:30.030Z,39.88
2022-08-26T12:47:42.109Z,39.98
2022-08-26T12:48:30.992Z,39.78
2022-08-26T12:49:29.984Z,39.78
2022-08-26T12:50:29.973Z,39.98
2022-08-26T12:51:29.985Z,40.00
2022-08-26T12:52:30.042Z,40.09
2022-08-26T12:53:30.006Z,40.68
2022-08-26T12:54:29.935Z,40.97
2022-08-26T12:55:29.925Z,40.50
2022-08-26T12:56:29.930Z,40.50